Time;durP1;ratioP1;P1;durP2;ratioP2;P2;SDS_P1;SDS_P2;PMS_P1;PMS_P2;Temp;Humidity;BMP_temperature;BMP_pressure;BME280_temperature;BME280_humidity;BME280_pressure;Samples;Min_cycle;Max_cycle;Signal;HPM_P1;HPM_P2
2021/09/24 00:01:20;;;;;;;5.90;0.88;;;;;;;15.49;68.22;101101.34;5086762;28;20191;-77
2021/09/24 00:03:47;;;;;;;5.03;1.58;;;;;;;15.46;68.32;101096.47;5088165;28;20040;-78
2021/09/24 00:06:14;;;;;;;3.35;0.95;;;;;;;15.47;68.31;101084.13;5087961;28;20688;-77
2021/09/24 00:08:41;;;;;;;7.50;1.40;;;;;;;15.50;68.28;101080.59;5088290;28;20043;-78
2021/09/24 00:11:08;;;;;;;4.90;1.00;;;;;;;15.50;68.33;101077.81;5087899;28;20089;-78
2021/09/24 00:13:35;;;;;;;7.72;1.90;;;;;;;15.52;68.61;101078.25;5087206;28;20109;-77
2021/09/24 00:16:02;;;;;;;3.15;0.70;;;;;;;15.52;68.68;101072.66;5086950;28;20044;-77
2021/09/24 00:18:29;;;;;;;2.92;0.95;;;;;;;15.55;68.66;101081.09;5088235;28;20127;-77
2021/09/24 00:20:56;;;;;;;3.70;1.30;;;;;;;15.59;68.96;101082.00;5083270;28;20134;-77
2021/09/24 00:23:22;;;;;;;7.07;1.10;;;;;;;15.62;69.03;101072.84;5089107;28;20113;-77
2021/09/24 00:25:49;;;;;;;4.53;1.88;;;;;;;15.64;69.10;101072.50;5088584;28;20050;-78
2021/09/24 00:28:16;;;;;;;3.25;1.00;;;;;;;15.63;69.44;101076.47;5086562;28;20048;-78
2021/09/24 00:30:43;;;;;;;5.30;1.08;;;;;;;15.67;69.48;101053.00;5086433;28;20063;-77
2021/09/24 00:33:10;;;;;;;4.00;1.33;;;;;;;15.71;69.59;101048.31;5086801;28;20051;-78
2021/09/24 00:35:38;;;;;;;2.53;0.75;;;;;;;15.71;69.74;101047.50;5086704;28;20047;-78
2021/09/24 00:38:07;;;;;;;1.75;0.82;;;;;;;15.70;70.17;101043.09;5086105;28;20039;-77
2021/09/24 00:40:36;;;;;;;3.05;0.73;;;;;;;15.71;70.46;101042.72;5086226;28;20043;-78
2021/09/24 00:43:04;;;;;;;4.15;1.10;;;;;;;15.71;70.71;101042.72;5087880;28;20071;-78
2021/09/24 00:45:30;;;;;;;3.50;1.30;;;;;;;15.71;71.39;101034.34;5087535;28;20044;-78
2021/09/24 00:47:57;;;;;;;4.22;1.25;;;;;;;15.73;71.37;101033.97;5088675;28;20048;-78
2021/09/24 00:50:24;;;;;;;6.05;1.50;;;;;;;15.73;71.69;101022.78;5083303;28;20108;-78
2021/09/24 00:52:53;;;;;;;3.17;0.90;;;;;;;15.70;72.35;101027.13;5088136;28;20107;-78
2021/09/24 00:55:21;;;;;;;2.65;0.52;;;;;;;15.66;72.50;101017.09;5086641;28;20427;-78
2021/09/24 00:57:48;;;;;;;3.10;0.68;;;;;;;15.66;72.94;101023.50;5087350;28;20048;-78
2021/09/24 01:00:16;;;;;;;8.30;1.33;;;;;;;15.68;72.83;101028.69;5088295;28;20123;-78
2021/09/24 01:02:43;;;;;;;1.55;0.60;;;;;;;15.67;73.41;101030.66;5087151;28;20071;-77
2021/09/24 01:05:11;;;;;;;4.72;1.10;;;;;;;15.66;73.73;101025.47;5087723;28;20036;-78
2021/09/24 01:07:41;;;;;;;2.88;0.52;;;;;;;15.63;74.24;101026.22;5088825;28;20079;-78
2021/09/24 01:10:09;;;;;;;0.95;0.70;;;;;;;15.64;74.26;101016.69;5086433;28;20032;-78
2021/09/24 01:12:36;;;;;;;3.70;0.63;;;;;;;15.65;74.46;101015.47;5087092;28;20040;-78
2021/09/24 01:15:16;;;;;;;3.85;0.80;;;;;;;15.64;75.81;101008.31;5088224;28;20116;-78
2021/09/24 01:17:44;;;;;;;2.30;0.80;;;;;;;15.63;74.96;101001.91;5084503;28;20040;-78
2021/09/24 01:20:13;;;;;;;1.77;0.60;;;;;;;15.64;75.41;101002.72;5069584;28;20048;-78
2021/09/24 01:22:40;;;;;;;3.70;0.90;;;;;;;15.64;75.39;100985.97;5087362;28;20510;-78
2021/09/24 01:25:09;;;;;;;2.20;0.98;;;;;;;15.60;75.79;100991.50;5088472;28;20101;-78
2021/09/24 01:27:36;;;;;;;2.10;0.85;;;;;;;15.59;75.97;100998.25;5091099;28;20044;-78
2021/09/24 01:30:04;;;;;;;3.80;1.08;;;;;;;15.57;76.11;100983.03;5090010;28;20574;-78
2021/09/24 01:32:31;;;;;;;3.75;0.70;;;;;;;15.58;76.04;100993.03;5086362;28;20067;-77
2021/09/24 01:35:00;;;;;;;4.20;1.05;;;;;;;15.58;76.22;100981.88;5091780;28;20425;-77
2021/09/24 01:37:27;;;;;;;3.13;1.00;;;;;;;15.55;76.69;100982.63;5091376;28;20105;-78
2021/09/24 01:39:53;;;;;;;1.55;0.75;;;;;;;15.56;76.46;100973.06;5089203;28;20129;-78
2021/09/24 01:42:22;;;;;;;4.95;2.28;;;;;;;15.57;76.75;100985.84;5090959;28;20063;-78
2021/09/24 01:44:50;;;;;;;3.45;1.08;;;;;;;15.56;76.77;100973.06;5091530;28;20063;-78
2021/09/24 01:47:17;;;;;;;5.78;1.38;;;;;;;15.57;77.01;100981.06;5090675;28;20467;-77
2021/09/24 01:49:44;;;;;;;2.58;1.42;;;;;;;15.57;77.49;100974.66;5092789;28;20441;-77
2021/09/24 01:52:12;;;;;;;1.95;1.00;;;;;;;15.58;77.61;100965.94;5090312;28;20040;-77
2021/09/24 01:54:38;;;;;;;4.07;1.33;;;;;;;15.62;77.67;100966.00;5089204;28;20148;-77
2021/09/24 01:57:05;;;;;;;2.60;1.35;;;;;;;15.64;77.85;100970.03;5091274;28;20044;-77
2021/09/24 01:59:32;;;;;;;2.05;1.35;;;;;;;15.64;78.08;100970.03;5090952;28;20101;-77
2021/09/24 02:01:59;;;;;;;2.22;1.10;;;;;;;15.68;78.22;100964.50;5091552;28;20134;-77
2021/09/24 02:04:26;;;;;;;2.45;1.40;;;;;;;15.69;78.37;100960.53;5090354;28;20480;-77
2021/09/24 02:06:52;;;;;;;2.28;1.70;;;;;;;15.70;78.40;100946.19;5090955;28;20032;-77
2021/09/24 02:09:19;;;;;;;5.03;1.20;;;;;;;15.70;78.37;100948.97;5089543;28;20051;-77
2021/09/24 02:11:46;;;;;;;5.40;1.63;;;;;;;15.71;78.40;100952.59;5092424;28;20043;-77
2021/09/24 02:14:13;;;;;;;2.88;1.50;;;;;;;15.73;78.50;100951.03;5090589;28;20040;-77
2021/09/24 02:16:40;;;;;;;6.00;2.08;;;;;;;15.72;78.86;100937.47;5089379;28;20377;-77
2021/09/24 02:19:07;;;;;;;4.45;1.55;;;;;;;15.70;79.33;100929.44;5086661;28;20051;-78
2021/09/24 02:21:33;;;;;;;4.18;1.80;;;;;;;15.69;79.40;100924.25;5089076;28;20044;-77
2021/09/24 02:24:00;;;;;;;2.38;1.48;;;;;;;15.67;79.23;100923.81;5089635;28;21052;-77
2021/09/24 02:26:27;;;;;;;3.63;2.25;;;;;;;15.65;79.75;100937.31;5090124;28;20476;-77
2021/09/24 02:29:10;;;;;;;6.22;2.28;;;;;;;15.65;79.83;100920.59;5088892;28;20123;-77
2021/09/24 02:31:37;;;;;;;6.18;3.40;;;;;;;15.65;80.09;100923.38;5088346;28;20052;-77
2021/09/24 02:34:04;;;;;;;8.98;3.20;;;;;;;15.67;79.87;100912.66;5106136;28;20832;-77
2021/09/24 02:36:31;;;;;;;3.92;2.80;;;;;;;15.67;80.36;100921.81;5089809;28;20067;-77
2021/09/24 02:38:58;;;;;;;7.32;3.03;;;;;;;15.68;80.71;100919.84;5086397;28;20069;-77
2021/09/24 02:41:25;;;;;;;3.92;2.25;;;;;;;15.70;80.75;100929.44;5087823;28;20467;-77
2021/09/24 02:43:51;;;;;;;5.35;2.10;;;;;;;15.72;81.09;100932.69;5089905;28;20044;-77
2021/09/24 02:46:18;;;;;;;4.55;2.95;;;;;;;15.72;81.34;100923.50;5088277;28;20776;-77
2021/09/24 02:48:45;;;;;;;8.07;5.25;;;;;;;15.72;81.37;100920.72;5088920;28;20036;-77
2021/09/24 02:51:12;;;;;;;3.67;2.72;;;;;;;15.74;81.78;100908.00;5090085;28;20044;-77
2021/09/24 02:53:39;;;;;;;6.53;3.05;;;;;;;15.76;81.54;100915.97;5088537;28;20066;-77
2021/09/24 02:56:06;;;;;;;6.03;3.35;;;;;;;15.79;81.72;100909.63;5090118;28;20032;-77
2021/09/24 02:58:33;;;;;;;5.28;3.13;;;;;;;15.80;81.77;100916.84;5090554;28;20051;-77
2021/09/24 03:01:01;;;;;;;8.13;3.33;;;;;;;15.79;82.38;100915.22;5089996;28;20051;-78
2021/09/24 03:03:28;;;;;;;4.07;3.15;;;;;;;15.80;82.38;100909.28;5089844;28;20048;-78
2021/09/24 03:05:55;;;;;;;8.90;3.47;;;;;;;15.80;82.50;100914.88;5087994;28;20044;-77
2021/09/24 03:08:22;;;;;;;4.63;3.28;;;;;;;15.81;82.80;100919.25;5085975;28;20126;-78
2021/09/24 03:10:49;;;;;;;6.38;3.83;;;;;;;15.82;82.66;100920.06;5089669;28;20078;-78
2021/09/24 03:13:16;;;;;;;5.28;3.83;;;;;;;15.82;82.90;100915.28;5089452;28;20127;-77
2021/09/24 03:15:42;;;;;;;6.90;3.67;;;;;;;15.83;83.06;100904.94;5088669;28;20040;-77
2021/09/24 03:18:09;;;;;;;5.63;3.30;;;;;;;15.83;83.07;100907.72;5089777;28;20032;-77
2021/09/24 03:20:36;;;;;;;6.00;3.20;;;;;;;15.86;83.04;100909.72;5089891;28;20487;-77
2021/09/24 03:23:03;;;;;;;4.93;3.58;;;;;;;15.86;83.29;100900.56;5089783;28;20127;-77
2021/09/24 03:25:30;;;;;;;4.75;2.67;;;;;;;15.85;83.30;100902.56;5089340;28;20113;-77
2021/09/24 03:27:56;;;;;;;4.60;3.03;;;;;;;15.86;83.38;100904.16;5087914;28;20047;-77
2021/09/24 03:30:24;;;;;;;5.95;3.28;;;;;;;15.86;83.67;100897.78;5087879;28;20036;-77
2021/09/24 03:32:51;;;;;;;3.72;3.03;;;;;;;15.86;83.75;100895.78;5089292;28;20055;-77
2021/09/24 03:35:18;;;;;;;6.90;3.60;;;;;;;15.90;83.49;100898.63;5089522;28;20051;-77
2021/09/24 03:37:45;;;;;;;10.57;3.63;;;;;;;15.91;83.41;100889.88;5089411;28;20123;-78
2021/09/24 03:40:13;;;;;;;3.50;3.13;;;;;;;15.93;83.40;100892.28;5087422;28;20399;-77
2021/09/24 03:42:39;;;;;;;4.82;3.47;;;;;;;15.92;83.22;100890.66;5089416;28;20130;-77
2021/09/24 03:45:08;;;;;;;5.88;3.22;;;;;;;15.92;83.54;100888.69;5088036;28;20113;-77
2021/09/24 03:47:35;;;;;;;5.32;3.60;;;;;;;15.89;83.70;100897.81;5087021;28;20473;-77
2021/09/24 03:50:03;;;;;;;7.05;3.40;;;;;;;15.88;83.82;100892.63;5088716;28;20043;-77
2021/09/24 03:52:30;;;;;;;8.50;4.07;;;;;;;15.91;83.68;100878.72;5088505;28;20040;-77
2021/09/24 03:54:56;;;;;;;7.38;3.90;;;;;;;15.91;84.03;100884.31;5088270;28;20100;-77
2021/09/24 03:57:23;;;;;;;4.90;3.22;;;;;;;15.91;83.84;100881.50;5088395;28;20122;-77
2021/09/24 03:59:50;;;;;;;5.65;3.15;;;;;;;15.89;84.39;100880.25;5087150;28;20043;-77
2021/09/24 04:02:17;;;;;;;7.13;4.30;;;;;;;15.88;84.56;100878.66;5083500;28;20044;-78
2021/09/24 04:04:44;;;;;;;4.93;3.17;;;;;;;15.88;84.57;100871.09;5088211;28;20506;-77
2021/09/24 04:07:10;;;;;;;7.30;3.90;;;;;;;15.90;84.53;100853.94;5088784;28;20063;-77
2021/09/24 04:09:37;;;;;;;5.70;3.45;;;;;;;15.90;84.55;100863.13;5088590;28;20040;-78
2021/09/24 04:12:05;;;;;;;3.78;2.92;;;;;;;15.91;84.56;100856.38;5088379;28;20050;-77
2021/09/24 04:14:31;;;;;;;4.10;3.22;;;;;;;15.92;84.74;100865.53;5088499;28;20124;-77
2021/09/24 04:16:58;;;;;;;4.72;3.45;;;;;;;15.91;84.75;100867.56;5088305;28;20047;-77
2021/09/24 04:19:25;;;;;;;4.90;2.90;;;;;;;15.91;84.71;100867.56;5087411;28;20158;-77
2021/09/24 04:21:52;;;;;;;3.58;2.63;;;;;;;15.89;84.76;100867.09;5086975;28;20050;-77
2021/09/24 04:24:19;;;;;;;6.22;2.97;;;;;;;15.88;85.15;100864.69;5069577;28;20051;-77
2021/09/24 04:26:45;;;;;;;4.28;2.97;;;;;;;15.87;85.17;100865.88;5083213;28;20380;-77
2021/09/24 04:29:12;;;;;;;5.20;3.05;;;;;;;15.86;85.49;100872.66;5088794;28;20040;-78
2021/09/24 04:31:39;;;;;;;5.38;2.65;;;;;;;15.87;85.47;100854.72;5088554;28;20128;-78
2021/09/24 04:34:05;;;;;;;3.42;2.38;;;;;;;15.88;85.14;100856.31;5088315;28;20062;-77
2021/09/24 04:36:32;;;;;;;5.13;2.40;;;;;;;15.89;85.36;100861.53;5086579;28;20066;-77
2021/09/24 04:39:02;;;;;;;2.95;2.60;;;;;;;15.91;85.37;100855.56;5084015;28;20036;-77
2021/09/24 04:41:28;;;;;;;5.05;2.45;;;;;;;15.92;85.44;100866.34;5086629;28;20050;-77
2021/09/24 04:43:55;;;;;;;4.40;2.22;;;;;;;15.96;85.33;100858.03;5088071;28;20040;-77
2021/09/24 04:46:22;;;;;;;2.90;2.17;;;;;;;15.98;85.34;100862.06;5089158;28;20051;-78
2021/09/24 04:48:49;;;;;;;3.22;2.40;;;;;;;16.00;85.18;100854.09;5087151;28;20036;-77
2021/09/24 04:51:15;;;;;;;2.53;1.85;;;;;;;16.04;85.24;100854.97;5087057;28;20101;-77
2021/09/24 04:53:42;;;;;;;2.28;2.08;;;;;;;16.07;85.35;100856.97;5088621;28;20527;-77
2021/09/24 04:56:09;;;;;;;5.55;2.25;;;;;;;16.09;85.52;100859.41;5087817;28;20048;-78
2021/09/24 04:58:36;;;;;;;4.65;2.05;;;;;;;16.09;85.41;100851.03;5088047;28;20044;-78
2021/09/24 05:01:05;;;;;;;4.18;2.08;;;;;;;16.11;85.46;100852.25;5085338;28;20043;-78
2021/09/24 05:03:32;;;;;;;2.47;1.50;;;;;;;16.09;85.85;100853.81;5086521;28;20135;-78
2021/09/24 05:05:59;;;;;;;3.10;1.98;;;;;;;16.11;85.95;100849.44;5086563;28;20040;-77
2021/09/24 05:08:26;;;;;;;3.78;1.67;;;;;;;16.10;86.12;100845.03;5087355;28;20498;-77
2021/09/24 05:10:52;;;;;;;3.40;2.15;;;;;;;16.14;85.90;100845.09;5087045;28;20048;-77
2021/09/24 05:13:19;;;;;;;3.22;2.10;;;;;;;16.13;86.22;100835.91;5087695;28;20063;-77
2021/09/24 05:15:46;;;;;;;3.05;1.67;;;;;;;16.17;86.12;100847.13;5087984;28;20047;-77
2021/09/24 05:18:12;;;;;;;4.70;1.73;;;;;;;16.18;86.08;100835.56;5087528;28;20085;-77
2021/09/24 05:20:39;;;;;;;3.85;1.80;;;;;;;16.20;85.94;100833.19;5087443;28;20044;-77
2021/09/24 05:23:06;;;;;;;3.90;1.60;;;;;;;16.21;85.75;100825.63;5085843;28;20360;-78
2021/09/24 05:25:33;;;;;;;2.83;1.80;;;;;;;16.22;86.05;100828.03;5086891;28;20050;-78
2021/09/24 05:27:59;;;;;;;2.30;1.60;;;;;;;16.24;85.97;100822.06;5086344;28;20678;-77
2021/09/24 05:30:27;;;;;;;4.63;1.80;;;;;;;16.27;86.02;100826.91;5086424;28;20048;-77
2021/09/24 05:32:55;;;;;;;3.55;1.70;;;;;;;16.27;86.32;100813.72;5087330;28;20422;-77
2021/09/24 05:35:22;;;;;;;2.40;1.30;;;;;;;16.30;86.17;100817.75;5084334;28;20123;-77
2021/09/24 05:37:49;;;;;;;5.15;1.85;;;;;;;16.32;86.07;100813.38;5086302;28;20051;-77
2021/09/24 05:40:16;;;;;;;3.85;1.95;;;;;;;16.35;86.25;100821.00;5087280;28;20127;-77
2021/09/24 05:42:42;;;;;;;1.77;1.13;;;;;;;16.36;86.25;100808.63;5087334;28;20715;-77
2021/09/24 05:45:13;;;;;;;3.60;1.67;;;;;;;16.37;86.26;100807.47;5087012;28;20036;-78
2021/09/24 05:47:41;;;;;;;3.80;2.10;;;;;;;16.37;86.30;100804.66;5085964;28;20044;-77
2021/09/24 05:50:14;;;;;;;2.92;1.83;;;;;;;16.39;86.48;100801.47;5087510;28;20293;-78
2021/09/24 05:52:47;;;;;;;2.42;1.85;;;;;;;16.38;87.09;100803.47;5086984;28;20072;-78
2021/09/24 05:55:15;;;;;;;5.93;1.95;;;;;;;16.38;86.64;100795.09;5087417;28;20050;-78
2021/09/24 05:57:43;;;;;;;4.13;1.70;;;;;;;16.39;86.67;100788.31;5084757;28;20593;-77
2021/09/24 06:00:12;;;;;;;3.13;1.50;;;;;;;16.40;86.78;100794.72;5087583;28;20046;-77
2021/09/24 06:02:40;;;;;;;3.03;1.33;;;;;;;16.41;86.95;100797.09;5085367;28;20054;-78
2021/09/24 06:05:07;;;;;;;3.47;1.10;;;;;;;16.43;86.77;100789.16;5085448;28;20047;-77
2021/09/24 06:07:34;;;;;;;4.50;1.52;;;;;;;16.48;86.71;100798.38;5087082;28;20411;-77
2021/09/24 06:10:01;;;;;;;1.83;1.30;;;;;;;16.47;87.01;100791.19;5087171;28;20044;-78
2021/09/24 06:12:28;;;;;;;2.08;1.30;;;;;;;16.50;87.04;100801.59;5086434;28;20036;-78
2021/09/24 06:14:57;;;;;;;3.22;1.23;;;;;;;16.52;87.03;100793.63;5082735;28;20074;-77
2021/09/24 06:17:24;;;;;;;3.65;2.05;;;;;;;16.51;87.26;100792.03;5089178;28;20067;-77
2021/09/24 06:19:51;;;;;;;3.00;1.45;;;;;;;16.54;87.28;100799.66;5090790;28;20051;-77
2021/09/24 06:22:17;;;;;;;2.70;1.30;;;;;;;16.54;87.25;100802.47;5090705;28;20495;-78
2021/09/24 06:24:45;;;;;;;2.90;1.67;;;;;;;16.55;87.16;100801.28;5089015;28;20523;-77
2021/09/24 06:27:16;;;;;;;3.35;1.50;;;;;;;16.58;87.26;100806.09;5090353;28;20046;-78
2021/09/24 06:29:45;;;;;;;3.27;1.57;;;;;;;16.57;87.49;100821.28;5089814;28;20055;-77
2021/09/24 06:32:15;;;;;;;5.50;1.60;;;;;;;16.59;87.33;100818.88;5089205;28;20431;-77
2021/09/24 06:34:44;;;;;;;4.30;2.13;;;;;;;16.59;87.38;100830.06;5090016;28;20047;-77
2021/09/24 06:37:11;;;;;;;4.30;2.15;;;;;;;16.58;87.78;100817.28;5088072;28;20040;-78
2021/09/24 06:39:38;;;;;;;4.03;1.90;;;;;;;16.58;87.52;100823.66;5087704;28;20051;-77
2021/09/24 06:42:05;;;;;;;6.50;2.17;;;;;;;16.58;87.57;100817.28;5088729;28;20040;-78
2021/09/24 06:44:33;;;;;;;4.15;2.45;;;;;;;16.59;87.68;100813.28;5090231;28;20036;-78
2021/09/24 06:47:00;;;;;;;6.55;2.35;;;;;;;16.60;87.68;100817.72;5090101;28;20094;-77
2021/09/24 06:49:27;;;;;;;5.90;2.53;;;;;;;16.57;88.04;100812.88;5102039;28;20043;-77
2021/09/24 06:51:57;;;;;;;6.25;3.17;;;;;;;16.53;88.29;100815.63;5088924;28;20051;-78
2021/09/24 06:54:25;;;;;;;4.43;2.70;;;;;;;16.53;88.28;100821.22;5090304;28;20066;-77
2021/09/24 06:56:52;;;;;;;4.60;2.78;;;;;;;16.53;88.49;100820.41;5090178;28;20408;-77
2021/09/24 06:59:19;;;;;;;6.20;3.08;;;;;;;16.56;88.35;100819.66;5089730;28;20036;-78
2021/09/24 07:01:46;;;;;;;5.22;3.33;;;;;;;16.55;88.60;100818.06;5089242;28;20067;-77
2021/09/24 07:04:14;;;;;;;8.45;3.63;;;;;;;16.56;88.51;100817.66;5089845;28;20495;-78
2021/09/24 07:06:42;;;;;;;8.93;3.55;;;;;;;16.57;88.65;100813.69;5089585;28;20043;-77
2021/09/24 07:09:09;;;;;;;5.50;3.17;;;;;;;16.58;88.54;100823.66;5088583;28;20039;-78
2021/09/24 07:11:36;;;;;;;4.47;2.80;;;;;;;16.59;88.83;100827.28;5086691;28;20047;-78
2021/09/24 07:14:13;;;;;;;4.10;2.63;;;;;;;16.62;88.87;100832.09;5089773;28;20391;-78
2021/09/24 07:16:39;;;;;;;4.90;2.63;;;;;;;16.60;89.25;100815.69;5086694;28;20036;-78
2021/09/24 07:19:07;;;;;;;5.50;2.50;;;;;;;16.62;88.97;100820.91;5089444;28;20032;-78
2021/09/24 07:21:34;;;;;;;8.23;2.53;;;;;;;16.62;89.64;100818.13;5088124;28;20028;-78
2021/09/24 07:24:02;;;;;;;5.13;2.60;;;;;;;16.66;89.13;100819.75;5087121;28;20048;-78
2021/09/24 07:26:30;;;;;;;8.48;2.88;;;;;;;16.66;89.59;100813.34;5089122;28;20040;-78
2021/09/24 07:28:58;;;;;;;5.78;2.17;;;;;;;16.71;89.73;100816.59;5089097;28;20043;-77
2021/09/24 07:31:25;;;;;;;6.63;2.35;;;;;;;16.76;89.49;100807.88;5086562;28;20120;-78
2021/09/24 07:33:52;;;;;;;6.07;2.10;;;;;;;16.80;89.73;100803.13;5071174;28;20131;-78
2021/09/24 07:36:19;;;;;;;3.20;1.98;;;;;;;16.87;89.61;100810.75;5086679;28;20063;-78
2021/09/24 07:38:47;;;;;;;3.35;1.77;;;;;;;16.87;89.58;100813.56;5086335;28;20329;-77
2021/09/24 07:41:16;;;;;;;2.42;1.67;;;;;;;16.94;89.64;100816.44;5082248;28;20048;-78
2021/09/24 07:43:43;;;;;;;6.60;1.65;;;;;;;17.02;89.16;100815.31;5086456;28;20042;-78
2021/09/24 07:46:10;;;;;;;2.35;1.33;;;;;;;17.12;88.71;100813.78;5087265;28;20387;-78
2021/09/24 07:48:37;;;;;;;4.43;1.65;;;;;;;17.18;88.54;100824.22;5069245;28;20047;-79
2021/09/24 07:51:04;;;;;;;4.75;1.20;;;;;;;17.24;88.42;100824.66;5088850;28;20044;-78
2021/09/24 07:53:30;;;;;;;2.85;1.75;;;;;;;17.28;88.41;100823.50;5087991;28;20036;-78
2021/09/24 07:55:57;;;;;;;3.60;1.67;;;;;;;17.33;88.12;100820.34;5089006;28;20051;-78
2021/09/24 07:58:24;;;;;;;1.85;1.38;;;;;;;17.41;87.81;100823.97;5088372;28;20097;-78
2021/09/24 08:00:51;;;;;;;2.67;1.13;;;;;;;17.47;87.42;100822.44;5086955;28;20048;-80
2021/09/24 08:03:17;;;;;;;2.88;1.08;;;;;;;17.52;87.28;100814.47;5086358;28;20522;-78
2021/09/24 08:05:44;;;;;;;1.02;0.85;;;;;;;17.61;87.23;100817.75;5088627;28;20126;-78
2021/09/24 08:08:11;;;;;;;1.83;0.77;;;;;;;17.63;86.96;100822.97;5087435;28;20044;-78
2021/09/24 08:10:37;;;;;;;8.23;1.85;;;;;;;17.71;86.78;100813.41;5088159;28;20748;-78
2021/09/24 08:13:05;;;;;;;2.13;0.70;;;;;;;17.80;86.45;100815.84;5085567;28;20039;-78
2021/09/24 08:15:32;;;;;;;1.70;0.95;;;;;;;17.89;86.36;100814.31;5088753;28;20476;-78
2021/09/24 08:17:59;;;;;;;4.03;0.90;;;;;;;17.94;85.98;100821.53;5087984;28;20066;-79
2021/09/24 08:20:29;;;;;;;4.20;1.00;;;;;;;17.97;85.77;100815.94;5086686;28;20047;-78
2021/09/24 08:22:55;;;;;;;5.22;1.05;;;;;;;17.98;85.24;100820.34;5080230;28;20036;-77
2021/09/24 08:25:22;;;;;;;1.90;0.80;;;;;;;18.05;85.16;100803.56;5087152;28;20090;-78
2021/09/24 08:27:49;;;;;;;1.65;0.93;;;;;;;18.14;84.65;100814.41;5086285;28;20048;-77
2021/09/24 08:30:17;;;;;;;3.08;2.13;;;;;;;18.21;84.60;100820.03;5087287;28;20046;-78
2021/09/24 08:32:45;;;;;;;1.25;0.85;;;;;;;18.29;84.32;100815.25;5086330;28;20050;-77
2021/09/24 08:35:13;;;;;;;1.02;0.60;;;;;;;18.37;83.87;100817.69;5086604;28;20389;-77
2021/09/24 08:37:42;;;;;;;1.90;0.75;;;;;;;18.45;83.83;100827.72;5085733;28;20050;-77
2021/09/24 08:40:10;;;;;;;2.25;0.80;;;;;;;18.48;83.45;100828.97;5068262;28;20397;-77
2021/09/24 08:42:41;;;;;;;1.35;0.57;;;;;;;18.51;83.00;100812.13;5086332;28;20044;-77
2021/09/24 08:45:13;;;;;;;2.22;1.20;;;;;;;18.54;82.67;100816.94;5085744;28;20408;-77
2021/09/24 08:47:40;;;;;;;2.40;0.50;;;;;;;18.59;82.68;100816.56;5079564;28;20050;-78
2021/09/24 08:50:08;;;;;;;1.08;0.50;;;;;;;18.68;82.69;100816.19;5082128;28;20069;-78
2021/09/24 08:52:37;;;;;;;1.90;0.70;;;;;;;18.76;82.70;100813.00;5086275;28;20040;-78
2021/09/24 08:55:07;;;;;;;3.50;0.63;;;;;;;18.89;82.51;100821.81;5086117;28;20036;-77
2021/09/24 08:57:34;;;;;;;2.08;0.50;;;;;;;18.98;82.15;100824.22;5087897;28;20042;-77
2021/09/24 09:00:06;;;;;;;0.90;0.68;;;;;;;19.04;81.44;100828.22;5068172;28;20388;-77
2021/09/24 09:02:59;;;;;;;1.27;0.47;;;;;;;19.08;80.20;100820.63;5085528;28;20875;-77
2021/09/24 09:05:28;;;;;;;0.88;0.75;;;;;;;19.03;80.95;100832.25;5077753;28;20056;-77
2021/09/24 09:08:28;;;;;;;2.00;0.50;;;;;;;19.06;80.41;100842.69;5082891;28;20137;-77
2021/09/24 09:11:19;;;;;;;2.63;0.40;;;;;;;19.03;79.91;100835.06;5080734;28;20133;-77
2021/09/24 09:13:53;;;;;;;2.45;0.60;;;;;;;19.07;80.24;100836.66;5084532;28;20119;-77
2021/09/24 09:16:22;;;;;;;4.57;0.60;;;;;;;19.03;80.30;100827.44;5084994;28;20048;-77
2021/09/24 09:19:02;;;;;;;2.60;0.38;;;;;;;19.05;80.01;100835.44;5087662;28;20037;-76
2021/09/24 09:21:29;;;;;;;1.38;0.50;;;;;;;19.04;79.79;100836.63;5086667;28;20048;-77
2021/09/24 09:23:56;;;;;;;4.03;0.52;;;;;;;19.08;79.85;100829.03;5085860;28;20036;-77
2021/09/24 09:26:25;;;;;;;1.35;0.38;;;;;;;19.21;79.61;100827.44;5084864;28;20044;-77
2021/09/24 09:28:56;;;;;;;0.75;0.38;;;;;;;19.26;79.13;100835.44;5084894;28;20125;-78
2021/09/24 09:31:32;;;;;;;2.60;0.50;;;;;;;19.31;78.82;100826.63;5086236;28;20143;-76
2021/09/24 09:34:03;;;;;;;1.15;0.40;;;;;;;19.35;78.84;100825.41;5086590;28;20036;-77
2021/09/24 09:36:36;;;;;;;1.23;0.55;;;;;;;19.50;78.56;100817.00;5084095;28;20079;-78
2021/09/24 09:39:12;;;;;;;1.05;0.32;;;;;;;19.66;78.07;100822.97;5085748;28;20051;-77
2021/09/24 09:41:53;;;;;;;1.30;0.43;;;;;;;19.71;76.84;100822.56;5085069;28;20050;-77
2021/09/24 09:44:28;;;;;;;4.03;0.50;;;;;;;19.64;77.36;100822.59;5086485;28;20563;-77
2021/09/24 09:46:56;;;;;;;0.50;0.50;;;;;;;19.60;77.54;100821.78;5087323;28;20044;-77
2021/09/24 09:49:30;;;;;;;0.93;0.60;;;;;;;19.47;76.63;100829.84;5087856;28;20126;-77
2021/09/24 09:52:11;;;;;;;0.60;0.55;;;;;;;19.38;77.16;100837.88;5090754;28;20050;-77
2021/09/24 09:54:38;;;;;;;0.85;0.80;;;;;;;19.42;77.29;100841.47;5103914;27;20048;-77
2021/09/24 09:57:18;;;;;;;1.55;1.00;;;;;;;19.48;77.13;100847.50;5090962;28;20040;-77
2021/09/24 09:59:49;;;;;;;0.90;0.80;;;;;;;19.57;77.02;100843.06;5088919;28;20097;-77
2021/09/24 10:02:19;;;;;;;3.80;0.82;;;;;;;19.64;76.79;100845.06;5089526;28;20089;-78
2021/09/24 10:04:51;;;;;;;2.65;0.90;;;;;;;19.58;76.39;100838.25;5090123;28;20119;-77
2021/09/24 10:07:21;;;;;;;7.82;3.22;;;;;;;19.48;76.27;100837.06;5089416;28;20051;-78
2021/09/24 10:10:02;;;;;;;1.52;0.75;;;;;;;19.50;76.45;100834.66;5072239;28;20044;-78
2021/09/24 10:12:28;;;;;;;1.75;0.43;;;;;;;19.69;76.30;100828.59;5072085;28;20044;-78
2021/09/24 10:14:55;;;;;;;0.77;0.63;;;;;;;19.83;76.14;100830.59;5088000;28;20048;-77
2021/09/24 10:17:23;;;;;;;2.38;0.68;;;;;;;19.96;75.65;100826.91;5072453;28;20483;-77
2021/09/24 10:19:51;;;;;;;0.88;0.70;;;;;;;20.12;75.78;100814.41;5089964;28;20043;-77
2021/09/24 10:22:19;;;;;;;1.13;0.40;;;;;;;20.48;74.83;100811.03;5087320;28;20093;-78
2021/09/24 10:24:46;;;;;;;1.73;0.40;;;;;;;20.88;73.85;100820.81;5090332;28;20058;-78
2021/09/24 10:27:25;;;;;;;0.80;0.50;;;;;;;20.93;71.83;100813.94;5101322;27;20079;-78
2021/09/24 10:29:54;;;;;;;3.38;0.50;;;;;;;20.98;72.63;100821.94;5086895;28;20123;-77
2021/09/24 10:32:25;;;;;;;2.67;0.40;;;;;;;21.05;71.88;100822.69;5088229;28;20071;-78
2021/09/24 10:34:55;;;;;;;3.22;0.60;;;;;;;20.95;71.56;100817.94;5087898;28;20040;-78
2021/09/24 10:37:24;;;;;;;2.28;0.98;;;;;;;21.12;71.39;100817.03;5086370;28;20052;-78
2021/09/24 10:39:58;;;;;;;1.05;0.95;;;;;;;21.15;71.44;100807.72;5088484;28;20032;-77
2021/09/24 10:42:34;;;;;;;3.17;1.02;;;;;;;21.65;70.47;100818.53;5087516;28;20396;-77
2021/09/24 10:45:18;;;;;;;1.88;1.48;;;;;;;22.12;67.48;100805.53;5088287;28;20036;-77
2021/09/24 10:48:03;;;;;;;1.73;1.00;;;;;;;22.32;67.69;100807.25;5089607;28;20093;-77
2021/09/24 10:50:33;;;;;;;0.40;0.40;;;;;;;22.24;68.12;100797.28;5090120;28;20652;-78
2021/09/24 10:53:18;;;;;;;2.28;0.80;;;;;;;22.25;66.49;100798.91;5086393;28;20047;-77
2021/09/24 10:55:54;;;;;;;4.50;1.23;;;;;;;22.03;66.29;100800.38;5088864;28;20055;-77
2021/09/24 10:58:27;;;;;;;3.42;1.00;;;;;;;22.04;68.05;100787.09;5085902;28;20040;-77
2021/09/24 11:00:59;;;;;;;2.45;0.47;;;;;;;22.13;67.84;100793.03;5087645;28;20078;-78
2021/09/24 11:03:29;;;;;;;0.47;0.32;;;;;;;21.99;67.44;100794.00;5099365;27;20046;-77
2021/09/24 11:06:04;;;;;;;2.13;0.45;;;;;;;21.93;67.19;100792.88;5088912;28;20040;-78
2021/09/24 11:08:37;;;;;;;2.00;0.70;;;;;;;21.88;67.77;100787.69;5087397;28;20044;-77
2021/09/24 11:11:21;;;;;;;0.57;0.57;;;;;;;21.88;67.86;100789.72;5087678;28;20055;-77
2021/09/24 11:13:54;;;;;;;1.25;0.60;;;;;;;21.87;67.54;100785.31;5084073;28;20182;-77
2021/09/24 11:16:25;;;;;;;0.90;0.50;;;;;;;21.97;67.35;100790.81;5089293;28;20372;-77
2021/09/24 11:18:55;;;;;;;0.85;0.85;;;;;;;22.05;67.23;100777.44;5086591;28;20075;-77
2021/09/24 11:21:31;;;;;;;3.10;0.90;;;;;;;22.03;66.70;100779.88;5086556;28;20057;-78
2021/09/24 11:24:00;;;;;;;2.50;1.10;;;;;;;21.92;67.25;100790.47;5087054;28;20047;-77
2021/09/24 11:26:29;;;;;;;1.48;0.82;;;;;;;21.79;67.18;100770.44;5088151;28;20048;-77
2021/09/24 11:29:09;;;;;;;0.82;0.60;;;;;;;21.68;66.94;100776.22;5089445;28;20036;-78
2021/09/24 11:31:54;;;;;;;1.05;0.65;;;;;;;21.50;67.33;100774.84;5087193;28;20484;-78